Time;durP1;ratioP1;P1;durP2;ratioP2;P2;SDS_P1;SDS_P2;PMS_P1;PMS_P2;Temp;Humidity;BMP_temperature;BMP_pressure;BME280_temperature;BME280_humidity;BME280_pressure;Samples;Min_cycle;Max_cycle;Signal;HPM_P1;HPM_P2
2022/03/13 00:02:07;;;;;;;1999.90;999.90;;;;;;;4.07;36.76;101778.03;15426287;28;20338;-60
2022/03/13 00:09:40;;;;;;;1999.90;999.90;;;;;;;4.19;36.11;101779.50;15428058;28;20093;-62
2022/03/13 00:17:15;;;;;;;1999.90;999.90;;;;;;;4.12;36.58;101761.47;15427325;28;20049;-61
2022/03/13 00:24:48;;;;;;;1999.90;999.90;;;;;;;3.97;36.49;101756.69;15413329;28;20039;-61
2022/03/13 00:32:20;;;;;;;1999.90;999.90;;;;;;;3.93;36.59;101763.81;15425461;28;20476;-62
2022/03/13 00:39:55;;;;;;;1999.90;999.90;;;;;;;3.62;38.14;101765.44;15430243;28;20039;-62
2022/03/13 00:47:27;;;;;;;1999.90;999.90;;;;;;;3.26;38.97;101767.00;15392728;28;20539;-62
2022/03/13 00:55:00;;;;;;;1999.90;999.90;;;;;;;3.15;38.59;101766.06;15443249;28;20055;-63
2022/03/13 01:02:32;;;;;;;1999.90;999.90;;;;;;;3.31;38.55;101767.88;15443281;28;20061;-63
2022/03/13 01:10:08;;;;;;;1999.90;999.90;;;;;;;3.10;38.79;101758.53;15444237;28;20085;-63
2022/03/13 01:17:40;;;;;;;1999.90;999.90;;;;;;;2.77;39.47;101753.19;15444885;28;20050;-63
2022/03/13 01:25:14;;;;;;;1999.90;999.90;;;;;;;2.79;39.31;101754.59;15440137;28;20059;-62
2022/03/13 01:32:53;;;;;;;1999.90;999.90;;;;;;;2.73;40.34;101749.28;15410766;28;20559;-62
2022/03/13 01:40:26;;;;;;;1999.90;999.90;;;;;;;2.54;39.50;101749.56;15400649;28;20748;-63
2022/03/13 01:47:59;;;;;;;1999.90;999.90;;;;;;;2.55;39.42;101748.47;15403188;28;20065;-61
2022/03/13 01:55:32;;;;;;;1999.90;999.90;;;;;;;2.62;39.06;101739.22;15399384;28;20073;-62
2022/03/13 02:03:05;;;;;;;1999.90;999.90;;;;;;;2.49;39.07;101741.22;15432942;28;20039;-62
2022/03/13 02:10:39;;;;;;;1999.90;999.90;;;;;;;2.51;39.39;101743.75;15407079;28;20093;-61
2022/03/13 02:18:14;;;;;;;1999.90;999.90;;;;;;;2.61;39.32;101724.59;15403725;28;20082;-62
2022/03/13 02:26:08;;;;;;;1999.90;999.90;;;;;;;2.35;39.60;101728.91;15402884;28;20118;-62
2022/03/13 02:33:41;;;;;;;1999.90;999.90;;;;;;;2.18;39.48;101725.34;15382170;28;20243;-62
2022/03/13 02:41:14;;;;;;;1999.90;999.90;;;;;;;2.17;39.66;101715.41;15396321;28;20094;-61
2022/03/13 02:48:46;;;;;;;1999.90;999.90;;;;;;;2.22;40.22;101724.59;15390883;28;20090;-63
2022/03/13 02:56:20;;;;;;;1999.90;999.90;;;;;;;2.01;40.14;101728.13;15403963;28;20135;-62
2022/03/13 03:03:58;;;;;;;1999.90;999.90;;;;;;;2.15;40.29;101723.09;15432134;28;20129;-61
2022/03/13 03:11:33;;;;;;;1999.90;999.90;;;;;;;1.98;40.51;101725.84;15422168;28;20058;-61
2022/03/13 03:19:06;;;;;;;1999.90;999.90;;;;;;;1.90;41.10;101731.81;15398330;28;20058;-62
2022/03/13 03:26:41;;;;;;;1999.90;999.90;;;;;;;1.91;40.79;101734.31;15400633;28;20447;-62
2022/03/13 03:34:15;;;;;;;1999.90;999.90;;;;;;;1.84;41.09;101728.13;15392276;28;20045;-61
2022/03/13 03:41:50;;;;;;;1999.90;999.90;;;;;;;1.76;41.72;101733.19;15426820;28;20050;-64
2022/03/13 03:49:22;;;;;;;1999.90;999.90;;;;;;;1.66;41.60;101723.69;15386772;28;20055;-60
2022/03/13 03:56:56;;;;;;;1999.90;999.90;;;;;;;1.43;41.76;101727.41;15405684;28;20308;-62
2022/03/13 04:04:28;;;;;;;1999.90;999.90;;;;;;;1.44;42.68;101723.59;15401618;28;20043;-60
2022/03/13 04:12:07;;;;;;;1999.90;999.90;;;;;;;1.27;42.13;101721.91;15404487;28;20039;-62
2022/03/13 04:19:39;;;;;;;1999.90;999.90;;;;;;;1.53;41.84;101710.25;15406622;28;20170;-62
2022/03/13 04:27:13;;;;;;;1999.90;999.90;;;;;;;1.47;41.61;101721.44;15375865;28;20072;-61
2022/03/13 04:34:45;;;;;;;1999.90;999.90;;;;;;;1.28;41.74;101735.41;15383414;28;20039;-61
2022/03/13 04:42:19;;;;;;;1999.90;999.90;;;;;;;1.51;41.31;101719.84;15371893;28;20047;-63
2022/03/13 04:49:51;;;;;;;1999.90;999.90;;;;;;;1.31;41.54;101728.56;15439315;28;20043;-64
2022/03/13 04:57:25;;;;;;;1999.90;999.90;;;;;;;1.39;41.65;101729.00;15384826;28;20049;-66
2022/03/13 05:04:59;;;;;;;1999.90;999.90;;;;;;;1.26;42.01;101729.31;15426832;28;20399;-61
2022/03/13 05:12:32;;;;;;;1999.90;999.90;;;;;;;1.23;42.45;101742.72;15383896;28;20046;-63
2022/03/13 05:20:06;;;;;;;1999.90;999.90;;;;;;;1.19;42.31;101741.53;15400885;28;20043;-63
2022/03/13 05:27:39;;;;;;;1999.90;999.90;;;;;;;1.18;41.90;101745.38;15398026;28;20327;-63
2022/03/13 05:35:14;;;;;;;1999.90;999.90;;;;;;;1.14;42.67;101743.09;15402249;28;20046;-63
2022/03/13 05:42:58;;;;;;;1999.90;999.90;;;;;;;1.10;42.30;101743.84;15406371;28;20043;-62
2022/03/13 05:50:30;;;;;;;1999.90;999.90;;;;;;;1.27;42.33;101750.25;15388833;28;20038;-61
2022/03/13 05:58:04;;;;;;;1999.90;999.90;;;;;;;1.33;41.54;101756.66;15402717;28;20106;-63
2022/03/13 06:05:37;;;;;;;1999.90;999.90;;;;;;;1.35;41.77;101760.00;15434435;28;20522;-63
2022/03/13 06:13:14;;;;;;;1999.90;999.90;;;;;;;1.53;41.83;101765.28;15394520;28;20054;-63
2022/03/13 06:20:46;;;;;;;1999.90;999.90;;;;;;;1.66;40.90;101769.63;15431937;28;20038;-63
2022/03/13 06:28:21;;;;;;;1999.90;999.90;;;;;;;1.99;40.29;101766.09;15394362;28;20126;-63
2022/03/13 06:35:53;;;;;;;1999.90;999.90;;;;;;;2.27;40.33;101781.66;15391505;28;20126;-62
2022/03/13 06:43:26;;;;;;;1999.90;999.90;;;;;;;2.66;39.15;101784.44;15426359;28;20039;-63
2022/03/13 06:50:58;;;;;;;1999.90;999.90;;;;;;;3.15;38.02;101768.81;15398463;28;20492;-62
2022/03/13 06:58:32;;;;;;;1999.90;999.90;;;;;;;4.23;36.33;101775.09;15424937;28;20047;-62
2022/03/13 07:06:04;;;;;;;1999.90;999.90;;;;;;;5.29;34.26;101776.75;15389716;28;20058;-61
2022/03/13 07:13:40;;;;;;;1999.90;999.90;;;;;;;5.48;33.84;101777.94;15380250;28;20070;-61
2022/03/13 07:21:12;;;;;;;1999.90;999.90;;;;;;;6.03;32.83;101772.75;15435204;28;20131;-62
2022/03/13 07:28:47;;;;;;;;;;;;;;;7.20;31.13;101776.13;15408541;28;20051;-63
2022/03/13 07:36:19;;;;;;;1999.90;999.90;;;;;;;7.61;30.00;101777.81;15369896;28;19999;-62
2022/03/13 07:43:52;;;;;;;1999.90;999.90;;;;;;;7.96;30.06;101771.19;15408912;28;20341;-61
2022/03/13 07:51:24;;;;;;;1999.90;999.90;;;;;;;8.77;28.62;101773.25;15368193;28;20047;-61
2022/03/13 07:58:58;;;;;;;1999.90;999.90;;;;;;;8.88;28.43;101774.78;15369662;28;20051;-61
2022/03/13 08:06:31;;;;;;;1999.90;999.90;;;;;;;9.05;27.92;101776.25;15440289;28;20469;-60
2022/03/13 08:14:06;;;;;;;1999.90;999.90;;;;;;;9.22;27.93;101771.84;15422633;28;20047;-63
2022/03/13 08:21:38;;;;;;;1999.90;999.90;;;;;;;9.74;27.46;101774.75;15417582;28;20053;-59
2022/03/13 08:29:14;;;;;;;1999.90;999.90;;;;;;;10.63;26.47;101772.72;15367439;28;20390;-61
2022/03/13 08:36:46;;;;;;;1999.90;999.90;;;;;;;11.62;25.13;101765.63;15406371;28;20086;-62
2022/03/13 08:44:20;;;;;;;1999.90;999.90;;;;;;;11.35;24.53;101766.50;15417092;28;20044;-63
2022/03/13 08:51:52;;;;;;;;;;;;;;;12.46;23.21;101755.75;15408628;28;20487;-62
2022/03/13 08:59:27;;;;;;;;;;;;;;;11.93;23.40;101759.34;15425787;28;20028;-61
2022/03/13 09:07:03;;;;;;;1999.90;999.90;;;;;;;13.39;21.83;101755.63;15407856;28;19922;-61
2022/03/13 09:14:39;;;;;;;1999.90;999.90;;;;;;;13.65;21.56;101747.25;15433105;28;20054;-63
2022/03/13 09:22:13;;;;;;;1999.90;999.90;;;;;;;12.05;21.86;101759.59;15434826;28;20081;-62
2022/03/13 09:29:47;;;;;;;1999.90;999.90;;;;;;;12.02;22.52;101761.06;15437835;28;20046;-62
2022/03/13 09:37:19;;;;;;;1999.90;999.90;;;;;;;12.77;21.47;101755.72;15423236;28;20050;-61
2022/03/13 09:44:52;;;;;;;1999.90;999.90;;;;;;;12.91;21.35;101762.03;15427505;28;20045;-64
2022/03/13 09:52:24;;;;;;;1999.90;999.90;;;;;;;13.75;21.13;101766.56;15428542;28;20049;-62
2022/03/13 09:59:58;;;;;;;1999.90;999.90;;;;;;;14.65;20.07;101750.59;15425388;28;20047;-62
2022/03/13 10:07:30;;;;;;;1999.90;999.90;;;;;;;14.96;19.42;101753.13;15426333;28;20046;-62
2022/03/13 10:15:06;;;;;;;1999.90;999.90;;;;;;;15.07;19.37;101747.94;15421296;28;20043;-62
2022/03/13 10:22:39;;;;;;;1999.90;999.90;;;;;;;15.51;19.31;101740.06;15370562;28;20541;-62
2022/03/13 10:30:13;;;;;;;1999.90;999.90;;;;;;;16.08;18.57;101729.03;15405161;28;20511;-61
2022/03/13 10:37:45;;;;;;;1999.90;999.90;;;;;;;16.61;17.49;101721.66;15381789;28;20531;-60
2022/03/13 10:53:16;;;;;;;1999.90;999.90;;;;;;;17.62;17.78;101720.94;15752018;27;20367;-65
2022/03/13 11:01:02;;;;;;;1999.90;999.90;;;;;;;17.80;16.96;101718.66;15723305;28;20044;-62
2022/03/13 11:08:36;;;;;;;1999.90;999.90;;;;;;;17.41;16.76;101717.47;15724487;28;20148;-59
2022/03/13 11:16:11;;;;;;;1999.90;999.90;;;;;;;16.56;16.54;101709.78;15725462;28;20100;-64
2022/03/13 11:23:45;;;;;;;1999.90;999.90;;;;;;;16.80;16.42;101706.22;15720850;28;20072;-61
2022/03/13 11:31:35;;;;;;;1999.90;999.90;;;;;;;17.30;15.36;101703.03;15722990;28;20111;-62
2022/03/13 11:39:10;;;;;;;1999.90;999.90;;;;;;;18.48;15.86;101692.31;15722879;28;20063;-61
2022/03/13 11:46:45;;;;;;;1999.90;999.90;;;;;;;17.77;15.80;101691.97;15716068;28;20425;-63
2022/03/13 11:54:57;;;;;;;1999.90;999.90;;;;;;;18.69;15.60;101688.06;15688221;28;20044;-62
2022/03/13 12:02:45;;;;;;;1999.90;999.90;;;;;;;19.60;14.92;101684.19;15691119;28;20048;-62
2022/03/13 12:10:34;;;;;;;1999.90;999.90;;;;;;;19.18;14.73;101678.34;15678373;28;20044;-60
2022/03/13 12:18:17;;;;;;;1999.90;999.90;;;;;;;18.38;15.27;101688.84;15678385;28;20037;-62
2022/03/13 12:25:54;;;;;;;1999.90;999.90;;;;;;;19.10;15.63;101668.88;15677217;28;20505;-63
2022/03/13 12:33:26;;;;;;;1999.90;999.90;;;;;;;18.86;15.39;101658.59;15678523;28;20354;-63
2022/03/13 12:41:03;;;;;;;1999.90;999.90;;;;;;;18.69;15.72;101664.63;15672873;28;20041;-65
2022/03/13 12:48:37;;;;;;;1999.90;999.90;;;;;;;19.17;15.46;101688.00;15665097;28;20434;-62
2022/03/13 12:56:11;;;;;;;1999.90;999.90;;;;;;;20.71;14.33;101661.63;15657448;28;20478;-62
2022/03/13 13:03:49;;;;;;;1999.90;999.90;;;;;;;19.98;14.35;101654.19;15670100;28;20445;-62
2022/03/13 13:11:30;;;;;;;1999.90;999.90;;;;;;;22.18;13.21;101642.56;15686037;28;20046;-64
2022/03/13 13:19:02;;;;;;;1999.90;999.90;;;;;;;21.02;15.08;101646.31;15677884;28;20052;-64
2022/03/13 13:26:43;;;;;;;1999.90;999.90;;;;;;;23.46;13.81;101648.47;15669340;28;20045;-64
2022/03/13 13:34:16;;;;;;;1999.90;999.90;;;;;;;21.96;15.13;101640.66;15669155;28;20048;-63
2022/03/13 13:41:57;;;;;;;1999.90;999.90;;;;;;;21.43;16.12;101643.69;15674678;28;20029;-64
2022/03/13 13:49:29;;;;;;;1999.90;999.90;;;;;;;16.55;19.11;101646.16;15686815;28;20049;-62
2022/03/13 13:57:03;;;;;;;1999.90;999.90;;;;;;;15.37;20.70;101629.81;15670538;28;20324;-63
2022/03/13 14:04:39;;;;;;;1999.90;999.90;;;;;;;15.00;21.07;101627.59;15670229;28;20410;-63
2022/03/13 14:12:15;;;;;;;1999.90;999.90;;;;;;;14.85;20.83;101627.41;15674504;28;20041;-62
2022/03/13 14:19:47;;;;;;;;;;;;;;;15.47;20.34;101635.03;15675631;28;20113;-62
2022/03/13 14:27:21;;;;;;;1999.90;999.90;;;;;;;15.50;19.75;101635.16;15677056;28;19963;-63
2022/03/13 14:34:53;;;;;;;1999.90;999.90;;;;;;;15.11;19.67;101632.81;15694615;28;20504;-63
2022/03/13 14:42:27;;;;;;;1999.90;999.90;;;;;;;15.06;20.04;101635.84;15682243;28;20112;-62
2022/03/13 14:50:01;;;;;;;1999.90;999.90;;;;;;;15.21;20.39;101632.41;15658606;28;20050;-63
2022/03/13 14:57:35;;;;;;;1999.90;999.90;;;;;;;15.27;19.59;101633.88;15670511;28;20044;-62
2022/03/13 15:05:08;;;;;;;1999.90;999.90;;;;;;;14.98;19.37;101617.88;15657924;28;20040;-62
2022/03/13 15:12:44;;;;;;;1999.90;999.90;;;;;;;15.14;19.58;101618.94;15668418;28;20509;-63
2022/03/13 15:20:16;;;;;;;1999.90;999.90;;;;;;;15.09;19.62;101619.13;15668966;28;20041;-63
2022/03/13 15:27:51;;;;;;;1999.90;999.90;;;;;;;15.29;19.85;101607.06;15664685;28;20045;-62
2022/03/13 15:35:23;;;;;;;1999.90;999.90;;;;;;;15.07;20.12;101604.59;15673169;28;20044;-63
2022/03/13 15:42:57;;;;;;;1999.90;999.90;;;;;;;14.87;20.38;101611.84;15679937;28;20371;-62
2022/03/13 15:50:29;;;;;;;1999.90;999.90;;;;;;;14.95;20.59;101610.97;15678418;28;20064;-62
2022/03/13 15:58:03;;;;;;;1999.90;999.90;;;;;;;14.69;20.75;101613.94;15677077;28;20048;-64
2022/03/13 16:05:40;;;;;;;1999.90;999.90;;;;;;;14.80;21.28;101594.72;15678662;28;20057;-63
2022/03/13 16:13:16;;;;;;;1999.90;999.90;;;;;;;14.61;21.39;101603.59;15677277;28;20111;-64
2022/03/13 16:20:50;;;;;;;1999.90;999.90;;;;;;;14.45;21.61;101608.13;15675952;28;20073;-63
2022/03/13 16:28:24;;;;;;;1999.90;999.90;;;;;;;14.38;21.83;101604.97;15676003;28;20106;-63
2022/03/13 16:36:00;;;;;;;1999.90;999.90;;;;;;;14.22;22.31;101615.94;15674565;28;20041;-63
2022/03/13 16:43:33;;;;;;;1999.90;999.90;;;;;;;14.00;22.63;101613.38;15676303;28;20041;-63
2022/03/13 16:51:06;;;;;;;1999.90;999.90;;;;;;;13.67;23.06;101610.31;15667978;28;20043;-62
2022/03/13 16:58:39;;;;;;;1999.90;999.90;;;;;;;13.47;23.52;101617.44;15646578;28;20072;-63
2022/03/13 17:06:12;;;;;;;1999.90;999.90;;;;;;;13.41;24.19;101613.97;15645733;28;20059;-61
2022/03/13 17:13:47;;;;;;;1999.90;999.90;;;;;;;13.24;23.92;101616.78;15650732;28;20045;-63
2022/03/13 17:21:19;;;;;;;1999.90;999.90;;;;;;;12.79;24.21;101624.59;15673462;28;20144;-62
2022/03/13 17:28:52;;;;;;;1999.90;999.90;;;;;;;12.57;24.60;101625.53;15654002;28;20057;-63
2022/03/13 17:36:24;;;;;;;1999.90;999.90;;;;;;;12.28;24.33;101623.28;15611658;28;20140;-61
2022/03/13 17:43:58;;;;;;;1999.90;999.90;;;;;;;12.29;23.94;101630.50;15612687;28;20073;-62
2022/03/13 17:51:30;;;;;;;1999.90;999.90;;;;;;;12.33;23.73;101632.34;15611420;28;20510;-62
2022/03/13 17:59:03;;;;;;;1999.90;999.90;;;;;;;12.06;24.29;101624.97;15609405;28;20487;-63
2022/03/13 18:06:38;;;;;;;1999.90;999.90;;;;;;;11.97;24.03;101634.47;15643972;28;20102;-63
2022/03/13 18:14:12;;;;;;;1999.90;999.90;;;;;;;12.00;24.09;101640.25;15671997;28;20059;-63
2022/03/13 18:21:44;;;;;;;1999.90;999.90;;;;;;;11.76;23.99;101648.94;15670751;28;20055;-64
2022/03/13 18:29:17;;;;;;;1999.90;999.90;;;;;;;11.71;24.54;101645.47;15688110;28;20041;-63
2022/03/13 18:36:52;;;;;;;1999.90;999.90;;;;;;;11.72;24.45;101645.16;15673918;28;20052;-62
2022/03/13 18:44:25;;;;;;;1999.90;999.90;;;;;;;11.42;24.40;101652.31;15677302;28;20118;-62
2022/03/13 18:51:58;;;;;;;1999.90;999.90;;;;;;;11.26;24.90;101651.03;15672996;28;20045;-63
2022/03/13 18:59:32;;;;;;;1999.90;999.90;;;;;;;11.28;24.64;101657.97;15670922;28;20095;-64
2022/03/13 19:07:17;;;;;;;1999.90;999.90;;;;;;;11.15;24.62;101667.22;15613600;28;20081;-65
2022/03/13 19:14:51;;;;;;;1999.90;999.90;;;;;;;11.01;24.76;101663.59;15619850;28;20053;-63
2022/03/13 19:22:25;;;;;;;1999.90;999.90;;;;;;;10.82;24.37;101665.69;15619332;28;20049;-62
2022/03/13 19:29:59;;;;;;;;;;;;;;;10.80;24.50;101677.19;15621369;28;20052;-62
2022/03/13 19:37:31;;;;;;;;;;;;;;;10.75;24.20;101687.63;15620499;28;19983;-62
2022/03/13 19:45:08;;;;;;;1999.90;999.90;;;;;;;10.64;24.44;101692.59;15618646;28;19974;-63
2022/03/13 19:52:41;;;;;;;1999.90;999.90;;;;;;;10.21;25.64;101705.94;15616946;28;20149;-62
2022/03/13 20:00:20;;;;;;;1999.90;999.90;;;;;;;9.93;25.64;101702.25;15620303;28;20465;-63
2022/03/13 20:07:52;;;;;;;1999.90;999.90;;;;;;;9.88;25.58;101707.91;15675352;28;20436;-62
2022/03/13 20:15:26;;;;;;;1999.90;999.90;;;;;;;9.80;25.53;101713.06;15655947;28;20101;-61
2022/03/13 20:22:58;;;;;;;;;;;;;;;9.83;25.59;101719.97;15671080;28;20037;-61
2022/03/13 20:30:32;;;;;;;1999.90;999.90;;;;;;;9.67;25.80;101719.38;15674286;28;20008;-61
2022/03/13 20:38:07;;;;;;;1999.90;999.90;;;;;;;9.57;26.03;101713.97;15669807;28;20686;-61
2022/03/13 20:45:44;;;;;;;1999.90;999.90;;;;;;;9.49;26.22;101711.88;15669266;28;20049;-60
2022/03/13 20:53:17;;;;;;;1999.90;999.90;;;;;;;9.60;26.24;101724.53;15666800;28;20069;-62
2022/03/13 21:00:51;;;;;;;1999.90;999.90;;;;;;;9.47;26.59;101719.69;15663537;28;20131;-60
2022/03/13 21:08:24;;;;;;;1999.90;999.90;;;;;;;9.29;26.34;101717.75;15663814;28;20124;-57
2022/03/13 21:16:00;;;;;;;1999.90;999.90;;;;;;;9.17;26.94;101716.25;15658332;28;20059;-60
2022/03/13 21:23:33;;;;;;;1999.90;999.90;;;;;;;9.10;27.02;101726.91;15637026;28;20064;-60
2022/03/13 21:31:26;;;;;;;1999.90;999.90;;;;;;;8.77;27.41;101725.09;15650495;28;20506;-64
2022/03/13 21:39:12;;;;;;;1999.90;999.90;;;;;;;8.64;27.84;101730.22;15664333;28;20091;-59
2022/03/13 21:46:53;;;;;;;1999.90;999.90;;;;;;;8.52;27.57;101726.22;15673688;28;20045;-61
2022/03/13 21:54:31;;;;;;;1999.90;999.90;;;;;;;8.49;27.71;101724.84;15653170;28;20186;-63
2022/03/13 22:02:08;;;;;;;1999.90;999.90;;;;;;;8.47;27.84;101734.63;15653021;28;20080;-63
2022/03/13 22:09:41;;;;;;;1999.90;999.90;;;;;;;8.49;28.14;101744.31;15661416;28;20433;-64
2022/03/13 22:17:16;;;;;;;1999.90;999.90;;;;;;;8.32;28.16;101746.69;15661741;28;20452;-64
2022/03/13 22:24:49;;;;;;;1999.90;999.90;;;;;;;8.38;28.24;101738.03;15662004;28;20049;-63
2022/03/13 22:32:24;;;;;;;1999.90;999.90;;;;;;;8.06;28.79;101734.97;15653151;28;20033;-63
2022/03/13 22:39:56;;;;;;;1999.90;999.90;;;;;;;7.81;29.45;101722.09;15648429;28;20425;-62
2022/03/13 22:47:31;;;;;;;1999.90;999.90;;;;;;;7.74;29.89;101736.34;15657085;28;20040;-62
2022/03/13 22:55:04;;;;;;;1999.90;999.90;;;;;;;7.56;30.35;101741.75;15662704;28;20045;-63
2022/03/13 23:02:37;;;;;;;1999.90;999.90;;;;;;;7.48;30.29;101741.25;15660753;28;20056;-63
2022/03/13 23:10:11;;;;;;;1999.90;999.90;;;;;;;7.16;30.83;101738.09;15656139;28;20037;-60
2022/03/13 23:17:44;;;;;;;1999.90;999.90;;;;;;;7.15;31.25;101734.50;15650721;28;20044;-62
2022/03/13 23:25:17;;;;;;;1999.90;999.90;;;;;;;6.77;31.91;101729.66;15654721;28;20222;-62
2022/03/13 23:32:56;;;;;;;1999.90;999.90;;;;;;;6.76;32.03;101737.16;15658394;28;20077;-62
2022/03/13 23:40:28;;;;;;;1999.90;999.90;;;;;;;6.64;32.34;101736.63;15667118;28;20052;-62
2022/03/13 23:48:02;;;;;;;1999.90;999.90;;;;;;;6.62;32.84;101730.53;15666806;28;20490;-63
2022/03/13 23:55:35;;;;;;;1999.90;999.90;;;;;;;6.52;32.50;101730.56;15668160;28;20052;-63
